createdAt,value
2018-09-12T00:00:45.601Z,5.00
2018-09-12T00:02:21.577Z,4.20
2018-09-12T00:03:58.148Z,3.20
2018-09-12T00:05:34.204Z,4.60
2018-09-12T00:07:10.974Z,4.40
2018-09-12T00:08:48.094Z,4.00
2018-09-12T00:10:25.384Z,4.00
2018-09-12T00:12:00.452Z,4.00
2018-09-12T00:13:35.753Z,4.00
2018-09-12T00:15:14.939Z,0.20
2018-09-12T00:16:51.747Z,4.00
2018-09-12T00:18:28.357Z,4.60
2018-09-12T00:20:03.732Z,4.80
2018-09-12T00:21:39.310Z,5.00
2018-09-12T00:23:15.185Z,4.60
2018-09-12T00:24:51.024Z,4.00
2018-09-12T00:26:26.823Z,4.20
2018-09-12T00:28:16.372Z,4.40
2018-09-12T00:29:51.756Z,4.40
2018-09-12T00:31:27.268Z,4.00
2018-09-12T00:33:02.488Z,4.00
2018-09-12T00:34:38.000Z,4.40
2018-09-12T00:36:12.959Z,4.00
2018-09-12T00:37:48.027Z,6.20
2018-09-12T00:39:24.323Z,3.60
2018-09-12T00:40:59.554Z,3.20
2018-09-12T00:42:36.269Z,4.00
2018-09-12T00:44:13.554Z,2.00
2018-09-12T00:45:49.232Z,2.00
2018-09-12T00:47:25.158Z,5.00
2018-09-12T00:49:00.836Z,3.60
2018-09-12T00:50:37.157Z,4.00
2018-09-12T00:52:11.971Z,4.20
2018-09-12T00:53:47.270Z,4.60
2018-09-12T00:55:23.955Z,0.60
2018-09-12T00:56:59.605Z,5.80
2018-09-12T00:58:34.955Z,5.00
2018-09-12T01:00:12.690Z,5.00
2018-09-12T01:01:50.731Z,4.00
2018-09-12T01:03:27.953Z,5.00
2018-09-12T01:05:02.924Z,5.00
2018-09-12T01:06:38.258Z,3.80
2018-09-12T01:08:15.188Z,5.00
2018-09-12T01:09:50.718Z,4.80
2018-09-12T01:11:26.175Z,4.80
2018-09-12T01:13:01.347Z,4.40
2018-09-12T01:14:36.919Z,4.20
2018-09-12T01:16:15.160Z,5.00
2018-09-12T01:18:00.834Z,4.60
2018-09-12T01:19:36.364Z,4.00
2018-09-12T01:21:11.755Z,2.00
2018-09-12T01:22:46.939Z,4.80
2018-09-12T01:24:22.872Z,2.00
2018-09-12T01:26:01.861Z,5.00
2018-09-12T01:27:40.540Z,3.20
2018-09-12T01:29:15.977Z,4.20
2018-09-12T01:30:51.784Z,4.00
2018-09-12T01:32:27.057Z,5.00
2018-09-12T01:34:04.533Z,4.00
2018-09-12T01:35:39.506Z,4.00
2018-09-12T01:37:17.368Z,2.40
2018-09-12T01:38:52.471Z,2.00
2018-09-12T01:40:27.496Z,5.00
2018-09-12T01:42:02.941Z,4.00
2018-09-12T01:43:37.872Z,4.00
2018-09-12T01:45:20.125Z,5.00
2018-09-12T01:46:55.809Z,4.00
2018-09-12T01:48:33.872Z,4.80
2018-09-12T01:50:09.379Z,4.80
2018-09-12T01:51:45.570Z,4.80
2018-09-12T01:53:21.344Z,5.00
2018-09-12T01:54:57.348Z,5.00
2018-09-12T01:56:32.447Z,4.00
2018-09-12T01:58:08.196Z,4.00
2018-09-12T01:59:44.548Z,3.20
2018-09-12T02:01:19.584Z,5.00
2018-09-12T02:02:54.383Z,4.00
2018-09-12T02:04:29.478Z,4.00
2018-09-12T02:06:04.868Z,4.20
2018-09-12T02:07:40.103Z,3.20
2018-09-12T02:09:15.932Z,3.60
2018-09-12T02:12:04.903Z,6.20
2018-09-12T02:13:40.391Z,1.00
2018-09-12T02:15:17.243Z,4.00
2018-09-12T02:16:52.359Z,5.20
2018-09-12T02:18:27.557Z,4.00
2018-09-12T02:20:03.895Z,4.80
2018-09-12T02:21:39.240Z,5.20
2018-09-12T02:23:17.219Z,4.00
2018-09-12T02:24:52.340Z,2.80
2018-09-12T02:26:27.532Z,4.20
2018-09-12T02:28:03.505Z,4.40
2018-09-12T02:29:39.534Z,4.40
2018-09-12T02:31:14.679Z,4.80
2018-09-12T02:32:49.432Z,4.00
2018-09-12T02:34:24.279Z,4.20
2018-09-12T02:36:04.346Z,1.40
2018-09-12T02:37:39.593Z,5.20
2018-09-12T02:39:14.548Z,4.60
2018-09-12T02:40:49.447Z,3.60
2018-09-12T02:42:24.291Z,5.60
2018-09-12T02:43:59.999Z,5.20
2018-09-12T02:45:35.155Z,4.00
2018-09-12T02:47:18.398Z,5.20
2018-09-12T02:48:54.316Z,4.40
2018-09-12T02:50:29.702Z,6.60
2018-09-12T02:52:04.875Z,7.00
2018-09-12T02:53:39.863Z,7.00
2018-09-12T02:55:15.405Z,7.00
2018-09-12T02:56:50.259Z,6.00
2018-09-12T02:58:25.571Z,5.20
2018-09-12T03:01:58.857Z,6.60
2018-09-12T03:03:33.779Z,5.20
2018-09-12T03:05:09.695Z,5.20
2018-09-12T03:06:44.525Z,4.20
2018-09-12T03:08:19.294Z,5.00
2018-09-12T03:09:54.780Z,5.20
2018-09-12T03:11:29.694Z,4.00
2018-09-12T03:13:04.536Z,5.20
2018-09-12T03:14:39.314Z,5.20
2018-09-12T03:16:14.589Z,6.00
2018-09-12T03:17:49.924Z,5.20
2018-09-12T03:19:24.989Z,5.60
2018-09-12T03:21:00.117Z,5.20
2018-09-12T03:22:34.824Z,4.80
2018-09-12T03:24:10.183Z,5.20
2018-09-12T03:25:45.560Z,6.40
2018-09-12T03:27:20.980Z,7.00
2018-09-12T03:28:56.107Z,5.00
2018-09-12T03:30:31.028Z,5.20
2018-09-12T03:32:05.933Z,6.00
2018-09-12T03:33:41.300Z,5.20
2018-09-12T03:35:16.604Z,4.60
2018-09-12T03:36:52.573Z,6.00
2018-09-12T03:38:27.576Z,5.20
2018-09-12T03:40:02.373Z,4.40
2018-09-12T03:41:37.820Z,7.00
2018-09-12T03:43:12.931Z,5.20
2018-09-12T03:44:47.969Z,5.40
2018-09-12T03:46:23.024Z,6.80
2018-09-12T03:47:58.022Z,5.20
2018-09-12T03:49:33.691Z,7.00
2018-09-12T03:51:08.514Z,7.00
2018-09-12T03:52:43.671Z,5.60
2018-09-12T03:54:18.617Z,6.20
2018-09-12T03:55:53.869Z,5.20
2018-09-12T03:57:29.325Z,6.00
2018-09-12T03:59:04.559Z,7.00
2018-09-12T04:00:40.346Z,7.00
2018-09-12T04:02:15.585Z,3.80
2018-09-12T04:03:50.689Z,6.80
2018-09-12T04:05:26.256Z,4.60
2018-09-12T04:07:01.355Z,5.20
2018-09-12T04:08:36.732Z,6.80
2018-09-12T04:10:11.564Z,5.20
2018-09-12T04:11:46.624Z,6.60
2018-09-12T04:13:26.048Z,7.40
2018-09-12T04:15:02.965Z,5.80
2018-09-12T04:16:37.822Z,7.40
2018-09-12T04:18:12.699Z,5.20
2018-09-12T04:19:47.568Z,7.00
2018-09-12T04:21:22.755Z,5.60
2018-09-12T04:22:57.937Z,5.20
2018-09-12T04:24:33.428Z,5.20
2018-09-12T04:26:08.481Z,5.20
2018-09-12T04:27:43.464Z,5.20
2018-09-12T04:29:18.605Z,7.00
2018-09-12T04:30:53.733Z,7.00
2018-09-12T04:32:29.021Z,4.40
2018-09-12T04:34:03.893Z,6.20
2018-09-12T04:35:40.234Z,2.20
2018-09-12T04:37:15.067Z,6.40
2018-09-12T04:38:50.092Z,6.00
2018-09-12T04:40:24.952Z,5.00
2018-09-12T04:42:01.055Z,4.60
2018-09-12T04:43:36.403Z,6.20
2018-09-12T04:45:14.397Z,6.60
2018-09-12T04:46:49.606Z,3.00
2018-09-12T04:48:26.549Z,6.00
2018-09-12T04:50:01.435Z,6.20
2018-09-12T04:51:36.972Z,4.80
2018-09-12T04:53:14.769Z,7.00
2018-09-12T04:54:50.160Z,4.00
2018-09-12T04:56:25.666Z,6.60
2018-09-12T04:58:00.536Z,4.40
2018-09-12T04:59:37.511Z,4.40
2018-09-12T05:01:15.623Z,6.00
2018-09-12T05:02:50.996Z,6.40
2018-09-12T05:04:26.515Z,4.00
2018-09-12T05:06:01.631Z,4.80
2018-09-12T05:07:37.120Z,6.40
2018-09-12T05:09:13.990Z,5.60
2018-09-12T05:10:49.354Z,6.60
2018-09-12T05:12:24.500Z,4.00
2018-09-12T05:14:10.940Z,6.80
2018-09-12T05:15:48.103Z,3.00
2018-09-12T05:17:33.999Z,6.80
2018-09-12T05:19:17.837Z,6.60
2018-09-12T05:20:55.569Z,6.00
2018-09-12T05:22:35.383Z,6.40
2018-09-12T05:24:11.762Z,6.00
2018-09-12T05:25:49.032Z,7.00
2018-09-12T05:27:25.589Z,6.00
2018-09-12T05:29:00.879Z,6.20
2018-09-12T05:30:37.600Z,2.20
2018-09-12T05:32:13.768Z,5.40
2018-09-12T05:33:49.572Z,5.20
2018-09-12T05:35:24.614Z,7.00
2018-09-12T05:37:02.358Z,6.00
2018-09-12T05:38:40.052Z,5.00
2018-09-12T05:40:15.819Z,5.20
2018-09-12T05:41:52.708Z,7.00
2018-09-12T05:43:32.656Z,3.00
2018-09-12T05:45:08.426Z,5.60
2018-09-12T05:46:45.403Z,7.40
2018-09-12T05:48:22.362Z,6.60
2018-09-12T05:49:57.419Z,6.80
2018-09-12T05:51:32.802Z,5.60
2018-09-12T05:53:08.511Z,5.80
2018-09-12T05:54:43.691Z,6.20
2018-09-12T05:56:19.079Z,7.60
2018-09-12T05:57:54.404Z,7.00
2018-09-12T05:59:29.731Z,5.40
2018-09-12T06:01:06.269Z,8.20
2018-09-12T06:02:42.347Z,5.00
2018-09-12T06:04:19.598Z,5.00
2018-09-12T06:05:55.106Z,5.00
2018-09-12T06:07:34.552Z,6.20
2018-09-12T06:09:11.511Z,4.60
2018-09-12T06:10:59.489Z,4.20
2018-09-12T06:12:34.463Z,2.00
2018-09-12T06:14:09.811Z,4.00
2018-09-12T06:15:46.378Z,6.20
2018-09-12T06:17:21.440Z,2.80
2018-09-12T06:18:57.432Z,4.80
2018-09-12T06:20:34.928Z,4.80
2018-09-12T06:22:10.496Z,5.00
2018-09-12T06:23:55.521Z,4.00
2018-09-12T06:25:32.850Z,4.40
2018-09-12T06:27:09.411Z,5.00
2018-09-12T06:28:46.600Z,6.60
2018-09-12T06:30:22.490Z,5.00
2018-09-12T06:32:00.222Z,5.20
2018-09-12T06:33:38.139Z,5.40
2018-09-12T06:35:13.938Z,5.00
2018-09-12T06:36:52.057Z,5.00
2018-09-12T06:38:33.101Z,4.80
2018-09-12T06:40:09.667Z,5.00
2018-09-12T06:41:45.783Z,5.00
2018-09-12T06:43:25.629Z,4.00
2018-09-12T06:45:01.035Z,4.80
2018-09-12T06:46:37.381Z,0.40
2018-09-12T06:48:13.038Z,4.00
2018-09-12T06:49:49.415Z,6.60
2018-09-12T06:51:27.676Z,5.20
2018-09-12T06:53:04.579Z,5.00
2018-09-12T06:54:40.446Z,5.40
2018-09-12T06:56:17.925Z,5.80
2018-09-12T06:57:54.690Z,5.00
2018-09-12T06:59:31.009Z,5.00
2018-09-12T07:01:06.928Z,3.80
2018-09-12T07:02:42.413Z,5.00
2018-09-12T07:04:19.335Z,5.20
2018-09-12T07:05:54.269Z,6.00
2018-09-12T07:07:30.626Z,7.80
2018-09-12T07:09:08.207Z,5.40
2018-09-12T07:10:43.461Z,6.00
2018-09-12T07:12:18.508Z,5.40
2018-09-12T07:13:54.308Z,5.20
2018-09-12T07:15:30.402Z,5.40
2018-09-12T07:17:06.776Z,3.00
2018-09-12T07:18:43.737Z,3.00
2018-09-12T07:20:21.344Z,2.80
2018-09-12T07:21:57.623Z,3.40
2018-09-12T07:23:33.189Z,5.80
2018-09-12T07:25:10.461Z,4.20
2018-09-12T07:26:46.749Z,3.00
2018-09-12T07:28:23.146Z,4.20
2018-09-12T07:30:00.117Z,3.00
2018-09-12T07:31:36.521Z,4.00
2018-09-12T07:33:13.417Z,3.60
2018-09-12T07:34:49.907Z,3.80
2018-09-12T07:36:27.837Z,3.80
2018-09-12T07:38:02.935Z,3.40
2018-09-12T07:39:38.761Z,3.60
2018-09-12T07:41:15.664Z,3.60
2018-09-12T07:42:53.914Z,5.20
2018-09-12T07:44:30.028Z,5.20
2018-09-12T07:46:05.767Z,4.00
2018-09-12T07:47:41.288Z,5.60
2018-09-12T07:49:16.256Z,3.20
2018-09-12T07:50:51.627Z,5.20
2018-09-12T07:52:26.835Z,5.20
2018-09-12T07:54:02.362Z,6.00
2018-09-12T07:55:40.664Z,6.00
2018-09-12T07:57:18.379Z,7.00
2018-09-12T07:58:55.802Z,4.00
2018-09-12T08:00:32.829Z,6.60
2018-09-12T08:02:08.065Z,6.80
2018-09-12T08:03:46.074Z,6.20
2018-09-12T08:05:23.399Z,7.20
2018-09-12T08:07:00.030Z,6.80
2018-09-12T08:08:38.137Z,5.00
2018-09-12T08:10:13.279Z,7.00
2018-09-12T08:11:48.335Z,4.80
2018-09-12T08:13:26.059Z,7.80
2018-09-12T08:15:03.651Z,7.20
2018-09-12T08:16:41.559Z,7.60
2018-09-12T08:18:19.714Z,7.80
2018-09-12T08:19:57.707Z,5.20
2018-09-12T08:21:32.876Z,7.60
2018-09-12T08:23:10.118Z,8.00
2018-09-12T08:24:45.642Z,7.00
2018-09-12T08:26:24.130Z,7.60
2018-09-12T08:28:15.647Z,7.20
2018-09-12T08:29:54.896Z,8.20
2018-09-12T08:31:30.942Z,8.00
2018-09-12T08:33:07.327Z,9.20
2018-09-12T08:34:43.868Z,5.60
2018-09-12T08:36:30.358Z,4.00
2018-09-12T08:38:10.675Z,2.80
2018-09-12T08:39:46.725Z,8.00
2018-09-12T08:41:22.517Z,8.40
2018-09-12T08:42:59.917Z,9.60
2018-09-12T08:44:35.641Z,8.00
2018-09-12T08:46:26.857Z,7.20
2018-09-12T08:48:06.609Z,7.00
2018-09-12T08:49:42.548Z,7.80
2018-09-12T08:51:19.601Z,7.80
2018-09-12T08:52:56.423Z,4.60
2018-09-12T08:54:32.204Z,7.80
2018-09-12T08:56:08.567Z,7.20
2018-09-12T08:57:45.998Z,6.80
2018-09-12T08:59:21.853Z,8.00
2018-09-12T09:00:58.714Z,7.00
2018-09-12T09:02:35.944Z,7.00
2018-09-12T09:04:12.871Z,7.00
2018-09-12T09:05:49.428Z,5.00
2018-09-12T09:07:25.211Z,3.80
2018-09-12T09:09:01.488Z,6.20
2018-09-12T09:10:37.701Z,4.60
2018-09-12T09:12:14.907Z,5.00
2018-09-12T09:13:54.373Z,5.80
2018-09-12T09:15:30.341Z,6.80
2018-09-12T09:17:12.494Z,4.60
2018-09-12T09:18:51.300Z,6.60
2018-09-12T09:20:28.116Z,4.20
2018-09-12T09:22:04.639Z,4.20
2018-09-12T09:23:41.078Z,4.80
2018-09-12T09:25:19.810Z,4.00
2018-09-12T09:26:55.367Z,3.40
2018-09-12T09:28:32.559Z,3.60
2018-09-12T09:30:10.363Z,4.00
2018-09-12T09:31:45.265Z,3.00
2018-09-12T09:33:20.373Z,4.00
2018-09-12T09:34:55.459Z,4.80
2018-09-12T09:36:32.761Z,4.60
2018-09-12T09:38:09.932Z,5.00
2018-09-12T09:39:45.615Z,4.00
2018-09-12T09:41:22.732Z,3.00
2018-09-12T09:43:03.604Z,5.00
2018-09-12T09:44:38.863Z,4.00
2018-09-12T09:46:14.253Z,3.20
2018-09-12T09:47:50.402Z,5.00
2018-09-12T09:49:28.264Z,4.00
2018-09-12T09:51:04.987Z,5.20
2018-09-12T09:52:43.070Z,5.00
2018-09-12T09:54:20.881Z,4.00
2018-09-12T09:55:59.218Z,5.00
2018-09-12T09:57:38.745Z,5.20
2018-09-12T09:59:16.764Z,4.20
2018-09-12T10:00:57.138Z,6.40
2018-09-12T10:02:39.671Z,2.00
2018-09-12T10:04:25.842Z,6.00
2018-09-12T10:06:06.609Z,4.40
2018-09-12T10:07:48.663Z,6.20
2018-09-12T10:09:37.885Z,6.20
2018-09-12T10:11:34.754Z,5.80
2018-09-12T10:13:14.188Z,6.00
2018-09-12T10:14:55.321Z,6.80
2018-09-12T10:16:32.835Z,12.00
2018-09-12T10:18:09.369Z,8.20
2018-09-12T10:19:54.188Z,7.20
2018-09-12T10:21:53.708Z,8.00
2018-09-12T10:23:29.324Z,6.60
2018-09-12T10:25:06.021Z,8.00
2018-09-12T10:26:43.440Z,7.00
2018-09-12T10:28:19.243Z,2.60
2018-09-12T10:29:55.252Z,5.00
2018-09-12T10:31:33.709Z,5.00
2018-09-12T10:33:09.447Z,4.60
2018-09-12T10:34:50.721Z,5.20
2018-09-12T10:36:33.550Z,5.60
2018-09-12T10:38:09.449Z,5.00
2018-09-12T10:39:44.979Z,6.20
2018-09-12T10:41:24.710Z,6.20
2018-09-12T10:43:11.637Z,6.00
2018-09-12T10:44:51.910Z,6.00
2018-09-12T10:46:28.055Z,4.00
2018-09-12T10:48:04.791Z,6.40
2018-09-12T10:49:41.957Z,7.00
2018-09-12T10:51:23.947Z,7.00
2018-09-12T10:53:02.350Z,6.60
2018-09-12T10:54:41.336Z,5.40
2018-09-12T10:56:18.300Z,6.20
2018-09-12T10:57:56.568Z,7.00
2018-09-12T10:59:38.350Z,6.00
2018-09-12T11:01:21.333Z,5.80
2018-09-12T11:03:02.796Z,6.80
2018-09-12T11:04:41.498Z,7.00
2018-09-12T11:06:17.661Z,7.00
2018-09-12T11:07:53.166Z,6.40
2018-09-12T11:09:29.784Z,5.60
2018-09-12T11:11:10.011Z,7.00
2018-09-12T11:12:48.043Z,7.00
2018-09-12T11:14:30.904Z,6.00
2018-09-12T11:16:06.599Z,4.60
2018-09-12T11:17:45.751Z,7.00
2018-09-12T11:19:23.938Z,6.00
2018-09-12T11:21:10.908Z,6.20
2018-09-12T11:22:50.323Z,6.00
2018-09-12T11:24:31.523Z,5.80
2018-09-12T11:26:13.552Z,6.80
2018-09-12T11:27:51.314Z,6.20
2018-09-12T11:29:29.279Z,5.00
2018-09-12T11:31:05.179Z,8.00
2018-09-12T11:32:40.858Z,6.60
2018-09-12T11:34:17.045Z,9.80
2018-09-12T11:35:52.817Z,7.60
2018-09-12T11:37:28.137Z,6.60
2018-09-12T11:39:03.613Z,6.60
2018-09-12T11:40:39.153Z,6.00
2018-09-12T11:42:15.354Z,8.00
2018-09-12T11:43:52.939Z,8.80
2018-09-12T11:45:29.253Z,8.80
2018-09-12T11:47:04.363Z,7.00
2018-09-12T11:48:40.013Z,7.80
2018-09-12T11:50:15.171Z,8.00
2018-09-12T11:51:51.792Z,8.00
2018-09-12T11:53:27.668Z,10.60
2018-09-12T11:55:03.938Z,10.00
2018-09-12T11:56:39.307Z,9.00
2018-09-12T11:58:14.502Z,9.00
2018-09-12T11:59:49.441Z,9.40
2018-09-12T12:01:27.166Z,8.80
2018-09-12T12:03:02.314Z,8.20
2018-09-12T12:04:37.520Z,9.00
2018-09-12T12:06:12.643Z,8.00
2018-09-12T12:07:47.566Z,9.00
2018-09-12T12:09:36.710Z,9.20
2018-09-12T12:11:12.058Z,7.20
2018-09-12T12:12:47.084Z,13.80
2018-09-12T12:14:23.802Z,8.20
2018-09-12T12:15:59.991Z,8.80
2018-09-12T12:17:40.824Z,10.20
2018-09-12T12:19:15.974Z,11.20
2018-09-12T12:20:51.793Z,13.00
2018-09-12T12:22:27.741Z,12.60
2018-09-12T12:24:04.885Z,12.00
2018-09-12T12:25:40.440Z,14.00
2018-09-12T12:27:15.419Z,9.80
2018-09-12T12:28:50.444Z,15.00
2018-09-12T12:30:27.476Z,14.00
2018-09-12T12:32:03.244Z,18.20
2018-09-12T12:33:41.688Z,18.00
2018-09-12T12:35:23.398Z,17.40
2018-09-12T12:37:02.165Z,17.40
2018-09-12T12:38:37.828Z,18.80
2018-09-12T12:40:13.821Z,19.60
2018-09-12T12:41:50.612Z,18.80
2018-09-12T12:43:26.480Z,18.00
2018-09-12T12:45:06.428Z,17.60
2018-09-12T12:46:43.889Z,18.00
2018-09-12T12:48:27.633Z,18.00
2018-09-12T12:50:04.606Z,16.60
2018-09-12T12:51:44.717Z,16.80
2018-09-12T12:53:20.842Z,17.00
2018-09-12T12:54:56.104Z,17.00
2018-09-12T12:56:31.564Z,19.40
2018-09-12T12:59:17.357Z,18.20
2018-09-12T13:00:52.704Z,14.60
2018-09-12T13:02:31.046Z,18.60
2018-09-12T13:04:06.748Z,17.20
2018-09-12T13:05:44.050Z,19.40
2018-09-12T13:07:24.695Z,17.40
2018-09-12T13:09:05.694Z,15.40
2018-09-12T13:10:52.855Z,18.00
2018-09-12T13:12:37.448Z,13.20
2018-09-12T13:14:16.095Z,17.00
2018-09-12T13:15:53.372Z,13.20
2018-09-12T13:17:32.631Z,14.00
2018-09-12T13:19:11.613Z,15.40
2018-09-12T13:20:49.506Z,17.60
2018-09-12T13:22:26.154Z,16.20
2018-09-12T13:24:04.510Z,14.80
2018-09-12T13:25:41.992Z,18.00
2018-09-12T13:27:18.032Z,16.60
2018-09-12T13:28:55.082Z,19.20
2018-09-12T13:30:32.275Z,17.80
2018-09-12T13:32:08.430Z,14.00
2018-09-12T13:33:44.921Z,13.00
2018-09-12T13:35:21.520Z,16.60
2018-09-12T13:37:00.464Z,17.00
2018-09-12T13:38:37.709Z,16.00
2018-09-12T13:40:22.650Z,14.80
2018-09-12T13:41:59.090Z,17.00
2018-09-12T13:43:36.003Z,16.00
2018-09-12T13:45:19.470Z,14.40
2018-09-12T13:46:56.467Z,14.80
2018-09-12T13:48:33.761Z,14.40
2018-09-12T13:50:17.143Z,14.20
2018-09-12T13:54:33.930Z,16.40
2018-09-12T13:56:13.012Z,14.80
2018-09-12T13:57:49.253Z,13.60
2018-09-12T13:59:27.987Z,17.20
2018-09-12T14:01:07.595Z,17.00
2018-09-12T14:02:45.245Z,15.60
2018-09-12T14:04:23.062Z,13.00
2018-09-12T14:06:02.845Z,15.20
2018-09-12T14:07:41.691Z,18.40
2018-09-12T14:09:17.889Z,14.00
2018-09-12T14:10:55.105Z,17.00
2018-09-12T14:12:34.631Z,15.40
2018-09-12T14:14:12.132Z,16.60
2018-09-12T14:15:50.147Z,14.20
2018-09-12T14:17:28.466Z,12.80
2018-09-12T14:19:04.270Z,16.40
2018-09-12T14:20:40.059Z,16.40
2018-09-12T14:22:22.476Z,17.20
2018-09-12T14:24:04.379Z,15.00
2018-09-12T14:25:44.904Z,13.80
2018-09-12T14:27:24.597Z,16.00
2018-09-12T14:29:01.836Z,13.80
2018-09-12T14:30:39.177Z,18.60
2018-09-12T14:32:17.452Z,19.60
2018-09-12T14:33:52.963Z,17.60
2018-09-12T14:35:32.222Z,18.20
2018-09-12T14:37:08.157Z,15.00
2018-09-12T14:38:44.606Z,15.20
2018-09-12T14:40:22.441Z,16.00
2018-09-12T14:41:57.994Z,16.40
2018-09-12T14:43:37.076Z,15.40
2018-09-12T14:45:16.119Z,14.60
2018-09-12T14:46:51.061Z,15.60
2018-09-12T14:48:27.321Z,14.80
2018-09-12T14:50:03.812Z,15.40
2018-09-12T14:51:41.841Z,9.20
2018-09-12T14:53:21.583Z,11.00
2018-09-12T14:55:02.369Z,10.60
2018-09-12T14:56:41.279Z,8.80
2018-09-12T14:58:19.963Z,11.00
2018-09-12T14:59:58.293Z,9.80
2018-09-12T15:01:35.479Z,8.20
2018-09-12T15:03:14.697Z,8.20
2018-09-12T15:04:56.874Z,7.80
2018-09-12T15:06:35.788Z,11.40
2018-09-12T15:08:26.611Z,5.60
2018-09-12T15:10:04.956Z,11.00
2018-09-12T15:11:45.077Z,9.20
2018-09-12T15:13:24.125Z,11.40
2018-09-12T15:14:59.992Z,12.00
2018-09-12T15:16:36.173Z,13.00
2018-09-12T15:18:12.690Z,12.80
2018-09-12T15:19:51.549Z,11.20
2018-09-12T15:21:27.826Z,13.40
2018-09-12T15:23:08.086Z,16.00
2018-09-12T15:24:56.189Z,12.00
2018-09-12T15:26:34.702Z,15.40
2018-09-12T15:28:12.050Z,14.20
2018-09-12T15:29:54.656Z,18.60
2018-09-12T15:31:32.203Z,20.40
2018-09-12T15:33:11.593Z,16.60
2018-09-12T15:34:47.137Z,18.80
2018-09-12T15:36:23.422Z,22.80
2018-09-12T15:38:00.786Z,19.00
2018-09-12T15:39:53.844Z,16.00
2018-09-12T15:41:44.032Z,20.20
2018-09-12T15:47:07.273Z,21.60
2018-09-12T15:48:47.629Z,21.20
2018-09-12T15:50:31.325Z,19.60
2018-09-12T15:52:08.597Z,25.80
2018-09-12T15:53:50.060Z,25.40
2018-09-12T15:55:33.887Z,25.60
2018-09-12T15:57:14.197Z,23.20
2018-09-12T15:58:51.523Z,26.20
2018-09-12T16:00:35.322Z,22.40
2018-09-12T16:02:25.594Z,24.20
2018-09-12T16:04:04.394Z,23.80
2018-09-12T16:05:40.609Z,24.40
2018-09-12T16:07:16.917Z,24.80
2018-09-12T16:08:58.046Z,23.60
2018-09-12T16:10:37.790Z,22.00
2018-09-12T16:12:17.528Z,23.40
2018-09-12T16:13:56.179Z,22.80
2018-09-12T16:15:38.359Z,24.60
2018-09-12T16:17:22.456Z,26.80
2018-09-12T16:19:02.364Z,24.80
2018-09-12T16:20:41.247Z,22.00
2018-09-12T16:22:17.604Z,20.60
2018-09-12T16:23:57.347Z,18.60
2018-09-12T16:25:33.945Z,19.00
2018-09-12T16:27:12.445Z,21.60
2018-09-12T16:28:51.758Z,20.60
2018-09-12T16:30:35.351Z,16.60
2018-09-12T16:32:13.484Z,16.20
2018-09-12T16:33:59.450Z,18.60
2018-09-12T16:35:43.720Z,19.40
2018-09-12T16:37:21.216Z,15.80
2018-09-12T16:39:07.220Z,18.40
2018-09-12T16:40:45.698Z,15.80
2018-09-12T16:42:29.483Z,15.60
2018-09-12T16:44:06.317Z,19.80
2018-09-12T16:45:58.730Z,21.80
2018-09-12T16:47:36.027Z,18.40
2018-09-12T16:49:12.410Z,13.20
2018-09-12T16:50:47.641Z,18.20
2018-09-12T16:52:23.310Z,14.40
2018-09-12T16:53:58.524Z,17.20
2018-09-12T16:55:43.299Z,13.40
2018-09-12T16:57:26.510Z,16.60
2018-09-12T16:59:08.299Z,11.40
2018-09-12T17:00:45.719Z,13.60
2018-09-12T17:02:24.135Z,17.60
2018-09-12T17:04:02.020Z,19.40
2018-09-12T17:05:38.687Z,15.40
2018-09-12T17:07:15.980Z,17.40
2018-09-12T17:08:51.784Z,18.60
2018-09-12T17:10:29.921Z,11.20
2018-09-12T17:12:08.613Z,17.20
2018-09-12T17:13:46.265Z,12.60
2018-09-12T17:15:25.891Z,17.00
2018-09-12T17:17:10.345Z,15.80
2018-09-12T17:18:50.536Z,13.00
2018-09-12T17:20:34.279Z,16.00
2018-09-12T17:22:13.785Z,15.80
2018-09-12T17:23:53.511Z,16.00
2018-09-12T17:25:30.138Z,14.20
2018-09-12T17:27:09.423Z,15.00
2018-09-12T17:28:47.426Z,20.00
2018-09-12T17:30:27.921Z,14.60
2018-09-12T17:32:11.432Z,15.00
2018-09-12T17:33:58.674Z,14.20
2018-09-12T17:35:34.862Z,7.80
2018-09-12T17:37:14.160Z,13.40
2018-09-12T17:39:25.756Z,16.00
2018-09-12T17:41:03.241Z,20.80
2018-09-12T17:42:46.905Z,13.60
2018-09-12T17:44:31.476Z,16.20
2018-09-12T17:46:13.534Z,15.00
2018-09-12T17:47:49.118Z,18.20
2018-09-12T17:49:26.917Z,15.40
2018-09-12T17:51:04.285Z,15.00
2018-09-12T17:52:45.182Z,13.60
2018-09-12T17:54:22.081Z,21.80
2018-09-12T17:55:57.289Z,18.20
2018-09-12T17:57:33.391Z,20.60
2018-09-12T17:59:12.001Z,22.60
2018-09-12T18:00:49.865Z,21.00
2018-09-12T18:02:26.659Z,19.20
2018-09-12T18:04:03.656Z,18.20
2018-09-12T18:05:42.154Z,22.40
2018-09-12T18:07:17.981Z,15.60
2018-09-12T18:08:59.018Z,21.40
2018-09-12T18:10:39.106Z,14.60
2018-09-12T18:14:06.398Z,15.40
2018-09-12T18:15:48.800Z,25.60
2018-09-12T18:17:30.790Z,22.80
2018-09-12T18:19:14.484Z,19.60
2018-09-12T18:21:06.604Z,18.00
2018-09-12T18:22:46.488Z,19.40
2018-09-12T18:24:29.939Z,18.40
2018-09-12T18:27:55.819Z,23.20
2018-09-12T18:29:35.607Z,21.20
2018-09-12T18:31:17.146Z,21.40
2018-09-12T18:32:58.391Z,20.00
2018-09-12T18:34:41.159Z,21.20
2018-09-12T18:36:22.293Z,21.40
2018-09-12T18:38:01.648Z,17.80
2018-09-12T18:39:43.035Z,18.20
2018-09-12T18:41:20.624Z,18.00
2018-09-12T18:43:10.547Z,18.80
2018-09-12T18:44:52.288Z,14.00
2018-09-12T18:46:28.473Z,21.60
2018-09-12T18:48:12.400Z,15.20
2018-09-12T18:49:49.785Z,19.00
2018-09-12T18:51:32.722Z,9.60
2018-09-12T18:53:14.227Z,20.00
2018-09-12T18:54:55.027Z,17.40
2018-09-12T18:56:44.144Z,10.00
2018-09-12T18:58:25.389Z,18.20
2018-09-12T19:00:13.949Z,16.00
2018-09-12T19:01:54.709Z,13.40
2018-09-12T19:03:34.706Z,16.80
2018-09-12T19:05:18.117Z,13.00
2018-09-12T19:07:05.481Z,15.20
2018-09-12T19:08:48.455Z,15.60
2018-09-12T19:10:32.437Z,18.20
2018-09-12T19:12:13.954Z,16.00
2018-09-12T19:13:51.480Z,16.80
2018-09-12T19:15:37.553Z,17.60
2018-09-12T19:17:20.089Z,15.60
2018-09-12T19:19:03.598Z,10.40
2018-09-12T19:20:49.375Z,14.60
2018-09-12T19:22:29.829Z,12.20
2018-09-12T19:24:13.104Z,17.80
2018-09-12T19:25:53.267Z,14.40
2018-09-12T19:27:36.062Z,10.80
2018-09-12T19:29:16.289Z,13.80
2018-09-12T19:30:55.470Z,17.80
2018-09-12T19:32:40.294Z,16.40
2018-09-12T19:34:20.387Z,17.00
2018-09-12T19:36:03.064Z,16.40
2018-09-12T19:37:54.064Z,13.40
2018-09-12T19:39:39.463Z,16.40
2018-09-12T19:41:20.166Z,17.20
2018-09-12T19:42:57.479Z,16.80
2018-09-12T19:44:35.786Z,15.60
2018-09-12T19:46:13.385Z,11.00
2018-09-12T19:47:52.132Z,15.60
2018-09-12T19:49:29.102Z,18.20
2018-09-12T19:51:09.795Z,17.00
2018-09-12T19:52:46.497Z,20.40
2018-09-12T19:54:28.934Z,17.00
2018-09-12T19:56:06.451Z,16.40
2018-09-12T19:57:48.877Z,16.80
2018-09-12T19:59:25.913Z,16.80
2018-09-12T20:01:12.987Z,19.00
2018-09-12T20:02:51.904Z,18.20
2018-09-12T20:04:36.117Z,17.00
2018-09-12T20:06:16.280Z,12.20
2018-09-12T20:07:57.733Z,16.80
2018-09-12T20:09:36.544Z,10.20
2018-09-12T20:11:17.987Z,13.60
2018-09-12T20:13:00.368Z,14.00
2018-09-12T20:14:37.763Z,13.20
2018-09-12T20:16:19.759Z,16.00
2018-09-12T20:17:56.604Z,16.60
2018-09-12T20:20:51.749Z,12.60
2018-09-12T20:22:32.431Z,13.00
2018-09-12T20:24:16.284Z,13.20
2018-09-12T20:26:05.591Z,12.00
2018-09-12T20:27:47.553Z,16.20
2018-09-12T20:29:26.831Z,13.00
2018-09-12T20:31:12.720Z,13.20
2018-09-12T20:32:56.764Z,13.60
2018-09-12T20:34:39.024Z,15.20
2018-09-12T20:36:15.768Z,13.20
2018-09-12T20:38:07.660Z,14.60
2018-09-12T20:39:52.640Z,7.40
2018-09-12T20:41:36.864Z,13.40
2018-09-12T20:43:16.158Z,16.40
2018-09-12T20:45:03.651Z,14.00
2018-09-12T20:46:47.303Z,14.60
2018-09-12T20:48:26.128Z,16.60
2018-09-12T20:50:07.728Z,11.80
2018-09-12T20:51:53.201Z,13.20
2018-09-12T20:53:32.768Z,14.80
2018-09-12T20:55:15.257Z,11.00
2018-09-12T20:56:54.160Z,13.20
2018-09-12T20:58:29.824Z,12.60
2018-09-12T21:00:18.188Z,15.60
2018-09-12T21:02:01.489Z,12.20
2018-09-12T21:03:50.498Z,9.80
2018-09-12T21:05:34.681Z,11.40
2018-09-12T21:07:14.022Z,14.00
2018-09-12T21:08:52.666Z,13.60
2018-09-12T21:10:29.936Z,12.20
2018-09-12T21:12:07.280Z,9.20
2018-09-12T21:13:46.120Z,13.20
2018-09-12T21:15:21.767Z,13.40
2018-09-12T21:16:58.994Z,10.40
2018-09-12T21:18:35.130Z,10.20
2018-09-12T21:20:20.251Z,11.20
2018-09-12T21:22:01.396Z,10.80
2018-09-12T21:23:37.456Z,10.20
2018-09-12T21:25:15.297Z,10.60
2018-09-12T21:26:51.755Z,10.80
2018-09-12T21:28:28.093Z,11.00
2018-09-12T21:30:06.396Z,11.00
2018-09-12T21:31:42.644Z,8.00
2018-09-12T21:33:21.422Z,4.60
2018-09-12T21:35:07.155Z,10.20
2018-09-12T21:38:28.394Z,10.00
2018-09-12T21:40:03.873Z,8.40
2018-09-12T21:41:42.676Z,11.40
2018-09-12T21:43:20.587Z,7.00
2018-09-12T21:45:03.719Z,10.00
2018-09-12T21:46:43.396Z,7.60